createdAt,value
2022-08-04T00:00:02.650Z,14.95
2022-08-04T00:06:43.159Z,9.48
2022-08-04T00:09:59.133Z,16.83
2022-08-04T00:13:09.851Z,22.50
2022-08-04T00:16:32.940Z,17.80
2022-08-04T00:19:46.875Z,14.15
2022-08-04T00:22:55.601Z,10.63
2022-08-04T00:26:10.041Z,9.98
2022-08-04T00:29:17.637Z,6.60
2022-08-04T00:32:34.546Z,13.38
2022-08-04T00:35:42.456Z,16.30
2022-08-04T00:38:47.898Z,11.10
2022-08-04T00:42:16.934Z,9.07
2022-08-04T00:46:15.852Z,13.75
2022-08-04T00:49:59.599Z,12.10
2022-08-04T00:53:12.850Z,13.80
2022-08-04T00:56:49.766Z,11.43
2022-08-04T01:00:13.684Z,16.48
2022-08-04T01:03:37.587Z,8.85
2022-08-04T01:06:57.795Z,12.10
2022-08-04T01:10:12.134Z,9.40
2022-08-04T01:13:53.992Z,9.43
2022-08-04T01:17:17.746Z,20.42
2022-08-04T01:20:27.515Z,10.15
2022-08-04T01:24:09.021Z,14.88
2022-08-04T01:27:29.293Z,8.80
2022-08-04T01:30:45.193Z,12.55
2022-08-04T01:34:03.129Z,15.00
2022-08-04T01:37:22.071Z,12.40
2022-08-04T01:40:30.392Z,12.98
2022-08-04T01:43:42.614Z,11.60
2022-08-04T01:46:55.141Z,9.77
2022-08-04T01:50:08.154Z,10.57
2022-08-04T01:53:13.665Z,8.73
2022-08-04T01:56:21.546Z,12.50
2022-08-04T01:59:30.625Z,13.40
2022-08-04T02:02:38.516Z,12.63
2022-08-04T02:06:03.559Z,8.38
2022-08-04T02:09:19.784Z,14.52
2022-08-04T02:12:34.495Z,13.23
2022-08-04T02:15:57.282Z,10.27
2022-08-04T02:19:18.447Z,11.43
2022-08-04T02:22:28.191Z,10.32
2022-08-04T02:25:39.818Z,16.08
2022-08-04T02:28:51.126Z,9.80
2022-08-04T02:32:00.314Z,10.13
2022-08-04T02:35:11.696Z,11.13
2022-08-04T02:38:26.814Z,10.38
2022-08-04T02:41:33.493Z,11.77
2022-08-04T02:44:42.751Z,9.82
2022-08-04T02:48:29.356Z,7.85
2022-08-04T02:51:31.118Z,9.95
2022-08-04T02:54:42.736Z,6.25
2022-08-04T02:57:50.775Z,7.95
2022-08-04T03:00:55.914Z,14.95
2022-08-04T03:04:28.846Z,11.07
2022-08-04T03:08:08.970Z,10.07
2022-08-04T03:11:41.361Z,11.93
2022-08-04T03:15:35.865Z,8.23
2022-08-04T03:19:29.523Z,8.70
2022-08-04T03:23:13.386Z,9.18
2022-08-04T03:26:46.758Z,8.60
2022-08-04T03:30:09.804Z,5.65
2022-08-04T03:33:43.021Z,6.53
2022-08-04T03:37:22.160Z,8.00
2022-08-04T03:40:49.109Z,6.30
2022-08-04T03:44:38.276Z,9.02
2022-08-04T03:48:19.319Z,8.30
2022-08-04T03:51:53.543Z,8.68
2022-08-04T03:55:28.598Z,11.93
2022-08-04T03:58:58.251Z,8.82
2022-08-04T04:02:26.354Z,11.40
2022-08-04T04:06:15.048Z,10.32
2022-08-04T04:10:07.204Z,7.72
2022-08-04T04:13:39.566Z,12.80
2022-08-04T04:17:12.052Z,13.85
2022-08-04T04:20:46.548Z,12.57
2022-08-04T04:24:20.575Z,8.75
2022-08-04T04:27:48.363Z,10.02
2022-08-04T04:31:05.819Z,12.80
2022-08-04T04:34:28.147Z,14.30
2022-08-04T04:37:54.979Z,12.45
2022-08-04T04:41:14.442Z,13.32
2022-08-04T04:44:49.242Z,8.13
2022-08-04T04:48:08.677Z,12.35
2022-08-04T04:51:36.490Z,13.15
2022-08-04T04:54:54.210Z,8.05
2022-08-04T04:58:02.525Z,10.40
2022-08-04T05:01:37.411Z,13.57
2022-08-04T05:05:12.131Z,12.90
2022-08-04T05:14:31.695Z,12.20
2022-08-04T05:15:58.953Z,11.85
2022-08-04T05:19:15.774Z,16.83
2022-08-04T05:22:27.082Z,10.55
2022-08-04T05:25:41.525Z,10.75
2022-08-04T05:28:57.196Z,10.48
2022-08-04T05:32:06.867Z,13.48
2022-08-04T05:35:50.511Z,9.07
2022-08-04T05:38:47.595Z,11.73
2022-08-04T05:41:58.531Z,14.40
2022-08-04T05:45:18.280Z,13.38
2022-08-04T05:48:24.140Z,15.68
2022-08-04T05:51:31.017Z,16.50
2022-08-04T05:54:38.866Z,10.63
2022-08-04T05:57:50.828Z,7.53
2022-08-04T06:00:59.722Z,13.63
2022-08-04T06:04:11.294Z,14.63
2022-08-04T06:07:17.168Z,13.50
2022-08-04T06:10:29.250Z,9.38
2022-08-04T06:13:50.310Z,18.33
2022-08-04T06:16:59.825Z,14.43
2022-08-04T06:20:20.275Z,9.85
2022-08-04T06:23:32.769Z,11.48
2022-08-04T06:26:40.396Z,14.30
2022-08-04T06:29:51.954Z,8.30
2022-08-04T06:33:03.382Z,10.70
2022-08-04T06:36:11.015Z,8.57
2022-08-04T06:39:18.695Z,11.75
2022-08-04T06:42:25.798Z,18.80
2022-08-04T06:45:38.525Z,14.20
2022-08-04T06:48:45.552Z,10.45
2022-08-04T06:51:51.213Z,7.25
2022-08-04T06:54:59.735Z,13.90
2022-08-04T06:58:08.841Z,13.48
2022-08-04T07:01:22.426Z,13.05
2022-08-04T07:04:27.626Z,20.00
2022-08-04T07:07:36.787Z,17.98
2022-08-04T07:10:44.519Z,10.07
2022-08-04T07:13:51.132Z,11.90
2022-08-04T07:17:00.100Z,14.40
2022-08-04T07:20:05.641Z,12.65
2022-08-04T07:23:13.040Z,13.95
2022-08-04T07:26:19.349Z,18.00
2022-08-04T07:29:25.113Z,22.30
2022-08-04T07:32:32.788Z,16.40
2022-08-04T07:36:08.353Z,15.82
2022-08-04T07:39:07.627Z,19.52
2022-08-04T07:42:13.362Z,15.70
2022-08-04T07:45:21.900Z,14.27
2022-08-04T07:48:30.067Z,14.07
2022-08-04T07:51:36.721Z,14.27
2022-08-04T07:54:43.356Z,15.90
2022-08-04T07:57:48.833Z,9.35
2022-08-04T08:00:54.879Z,9.80
2022-08-04T08:04:04.153Z,20.23
2022-08-04T08:07:09.456Z,8.95
2022-08-04T08:10:18.207Z,12.45
2022-08-04T08:13:24.299Z,15.80
2022-08-04T08:16:33.763Z,13.40
2022-08-04T08:19:41.618Z,13.32
2022-08-04T08:26:00.040Z,9.30
2022-08-04T08:29:06.735Z,9.13
2022-08-04T08:32:15.397Z,17.40
2022-08-04T08:35:28.338Z,8.48
2022-08-04T08:38:48.747Z,8.97
2022-08-04T08:42:39.533Z,9.07
2022-08-04T08:46:13.993Z,14.90
2022-08-04T08:50:00.475Z,13.27
2022-08-04T08:53:41.281Z,13.73
2022-08-04T08:57:06.046Z,15.40
2022-08-04T09:00:19.502Z,8.27
2022-08-04T09:03:52.419Z,14.15
2022-08-04T09:07:13.157Z,7.68
2022-08-04T09:10:33.336Z,12.52
2022-08-04T09:13:48.438Z,13.88
2022-08-04T09:16:59.775Z,10.80
2022-08-04T09:20:10.133Z,8.95
2022-08-04T09:23:31.165Z,11.65
2022-08-04T09:26:59.762Z,9.73
2022-08-04T09:30:08.497Z,7.68
2022-08-04T09:33:45.413Z,9.80
2022-08-04T09:37:01.051Z,13.52
2022-08-04T09:40:14.478Z,12.57
2022-08-04T09:47:16.259Z,17.63
2022-08-04T09:50:37.091Z,26.00
2022-08-04T09:53:55.273Z,15.05
2022-08-04T09:57:10.412Z,12.20
2022-08-04T10:00:20.897Z,6.63
2022-08-04T10:03:55.469Z,5.15
2022-08-04T10:07:21.803Z,7.78
2022-08-04T10:10:38.840Z,8.95
2022-08-04T10:13:54.907Z,9.13
2022-08-04T10:17:14.548Z,6.30
2022-08-04T10:20:45.827Z,7.80
2022-08-04T10:24:13.298Z,6.50
2022-08-04T10:27:28.613Z,13.27
2022-08-04T10:30:38.518Z,10.43
2022-08-04T10:33:54.048Z,8.52
2022-08-04T10:37:06.629Z,10.93
2022-08-04T10:40:30.969Z,7.60
2022-08-04T10:43:47.818Z,10.50
2022-08-04T10:46:57.178Z,7.70
2022-08-04T10:50:06.825Z,8.27
2022-08-04T10:53:22.014Z,14.05
2022-08-04T10:56:34.833Z,17.10
2022-08-04T10:59:46.075Z,8.48
2022-08-04T11:02:56.386Z,8.73
2022-08-04T11:06:07.228Z,10.10
2022-08-04T11:09:14.819Z,12.32
2022-08-04T11:12:31.317Z,11.13
2022-08-04T11:15:42.258Z,3.75
2022-08-04T11:18:56.929Z,9.98
2022-08-04T11:22:14.073Z,8.50
2022-08-04T11:25:23.694Z,7.65
2022-08-04T11:28:42.066Z,11.18
2022-08-04T11:31:52.107Z,8.02
2022-08-04T11:35:05.485Z,7.43
2022-08-04T11:38:24.171Z,9.90
2022-08-04T11:41:52.007Z,10.07
2022-08-04T11:45:04.711Z,14.73
2022-08-04T11:48:16.246Z,7.87
2022-08-04T11:51:22.408Z,10.32
2022-08-04T11:54:44.910Z,20.98
2022-08-04T11:58:03.080Z,10.38
2022-08-04T12:01:19.919Z,9.75
2022-08-04T12:04:39.067Z,7.85
2022-08-04T12:07:59.192Z,8.15
2022-08-04T12:11:16.332Z,10.52
2022-08-04T12:14:31.233Z,8.52
2022-08-04T12:17:53.272Z,9.18
2022-08-04T12:21:02.898Z,11.65
2022-08-04T12:24:16.887Z,15.45
2022-08-04T12:27:30.835Z,13.50
2022-08-04T12:30:59.026Z,11.95
2022-08-04T12:34:11.221Z,14.07
2022-08-04T12:37:24.672Z,11.85
2022-08-04T12:40:33.883Z,13.65
2022-08-04T12:43:47.071Z,6.70
2022-08-04T12:46:52.960Z,11.27
2022-08-04T12:50:02.397Z,12.82
2022-08-04T12:53:19.435Z,8.13
2022-08-04T12:56:38.698Z,8.63
2022-08-04T12:59:57.132Z,6.78
2022-08-04T13:03:09.687Z,10.82
2022-08-04T13:06:23.454Z,6.75
2022-08-04T13:09:33.041Z,8.63
2022-08-04T13:12:39.712Z,9.95
2022-08-04T13:15:58.999Z,10.85
2022-08-04T13:19:05.170Z,8.98
2022-08-04T13:22:10.931Z,9.70
2022-08-04T13:26:41.805Z,8.63
2022-08-04T13:28:53.190Z,13.25
2022-08-04T13:32:02.812Z,13.60
2022-08-04T13:35:12.122Z,10.30
2022-08-04T13:38:28.425Z,13.23
2022-08-04T13:41:34.063Z,8.50
2022-08-04T13:44:40.881Z,9.68
2022-08-04T13:47:51.755Z,9.43
2022-08-04T13:51:06.577Z,12.88
2022-08-04T13:54:17.518Z,8.23
2022-08-04T13:57:30.660Z,6.93
2022-08-04T14:00:49.455Z,8.63
2022-08-04T14:04:02.709Z,9.23
2022-08-04T14:07:19.442Z,6.05
2022-08-04T14:10:26.490Z,6.47
2022-08-04T14:13:41.014Z,7.18
2022-08-04T14:17:04.003Z,5.07
2022-08-04T14:20:15.108Z,4.43
2022-08-04T14:23:20.134Z,9.95
2022-08-04T14:26:30.211Z,7.00
2022-08-04T14:29:41.987Z,5.53
2022-08-04T14:32:58.232Z,6.95
2022-08-04T14:36:07.217Z,5.78
2022-08-04T14:39:19.920Z,4.78
2022-08-04T14:42:43.231Z,2.95
2022-08-04T14:45:54.381Z,6.00
2022-08-04T14:49:10.505Z,5.30
2022-08-04T14:52:26.649Z,6.05
2022-08-04T14:55:34.022Z,6.32
2022-08-04T14:58:39.783Z,6.68
2022-08-04T15:01:46.014Z,7.15
2022-08-04T15:06:00.209Z,3.28
2022-08-04T15:08:37.240Z,5.10
2022-08-04T15:11:43.546Z,7.82
2022-08-04T15:14:48.701Z,4.78
2022-08-04T15:17:54.740Z,2.80
2022-08-04T15:21:06.587Z,5.30
2022-08-04T15:24:14.905Z,4.40
2022-08-04T15:27:21.440Z,4.82
2022-08-04T15:30:30.655Z,3.47
2022-08-04T15:33:36.663Z,2.75
2022-08-04T15:36:56.669Z,3.25
2022-08-04T15:40:14.818Z,4.20
2022-08-04T15:43:46.776Z,2.42
2022-08-04T15:47:15.502Z,1.63
2022-08-04T15:50:28.871Z,4.53
2022-08-04T15:54:02.435Z,7.22
2022-08-04T15:57:03.938Z,6.85
2022-08-04T16:00:15.083Z,5.88
2022-08-04T16:03:58.808Z,4.88
2022-08-04T16:07:08.361Z,4.25
2022-08-04T16:10:44.308Z,6.00
2022-08-04T16:14:13.849Z,6.05
2022-08-04T16:17:21.102Z,8.68
2022-08-04T16:20:26.289Z,4.00
2022-08-04T16:24:05.586Z,13.50
2022-08-04T16:27:12.426Z,3.15
2022-08-04T16:30:20.679Z,5.65
2022-08-04T16:33:43.967Z,4.82
2022-08-04T16:37:02.055Z,6.40
2022-08-04T16:40:36.598Z,4.38
2022-08-04T16:43:43.173Z,3.88
2022-08-04T16:47:08.096Z,3.83
2022-08-04T16:50:23.225Z,5.32
2022-08-04T16:53:53.137Z,5.10
2022-08-04T16:57:00.600Z,9.30
2022-08-04T17:00:07.438Z,5.10
2022-08-04T17:03:26.614Z,4.80
2022-08-04T17:06:37.975Z,2.40
2022-08-04T17:09:54.871Z,2.78
2022-08-04T17:13:28.064Z,3.97
2022-08-04T17:16:28.406Z,3.85
2022-08-04T17:19:36.197Z,7.65
2022-08-04T17:22:41.239Z,10.80
2022-08-04T17:25:54.838Z,2.58
2022-08-04T17:29:01.688Z,3.35
2022-08-04T17:32:07.334Z,2.55
2022-08-04T17:35:15.247Z,7.28
2022-08-04T17:38:20.316Z,8.90
2022-08-04T17:41:30.429Z,4.68
2022-08-04T17:44:45.818Z,3.80
2022-08-04T17:47:55.537Z,3.53
2022-08-04T17:51:18.477Z,6.82
2022-08-04T17:54:43.599Z,7.03
2022-08-04T17:57:52.437Z,6.95
2022-08-04T18:01:23.576Z,5.05
2022-08-04T18:04:41.231Z,2.97
2022-08-04T18:08:34.705Z,6.43
2022-08-04T18:11:42.198Z,3.00
2022-08-04T18:14:49.040Z,3.22
2022-08-04T18:18:21.850Z,3.55
2022-08-04T18:21:19.441Z,1.67
2022-08-04T18:24:36.186Z,4.45
2022-08-04T18:27:54.325Z,3.00
2022-08-04T18:30:59.371Z,2.72
2022-08-04T18:34:04.379Z,3.80
2022-08-04T18:38:04.300Z,4.53
2022-08-04T18:40:53.146Z,3.90
2022-08-04T18:43:59.758Z,1.95
2022-08-04T18:47:19.557Z,3.60
2022-08-04T18:51:10.001Z,4.97
2022-08-04T18:53:58.889Z,3.33
2022-08-04T18:57:32.528Z,5.95
2022-08-04T19:00:35.840Z,7.80
2022-08-04T19:03:41.209Z,4.00
2022-08-04T19:06:49.873Z,4.65
2022-08-04T19:09:58.461Z,4.10
2022-08-04T19:16:34.071Z,7.15
2022-08-04T19:19:49.612Z,3.40
2022-08-04T19:24:26.258Z,3.13
2022-08-04T19:29:48.062Z,4.30
2022-08-04T19:32:53.181Z,3.78
2022-08-04T19:35:58.285Z,2.20
2022-08-04T19:39:11.643Z,3.17
2022-08-04T19:42:17.072Z,4.82
2022-08-04T19:48:59.133Z,5.38
2022-08-04T19:52:07.215Z,8.88
2022-08-04T19:55:12.567Z,5.78
2022-08-04T19:58:17.846Z,2.58
2022-08-04T20:01:33.405Z,4.47
2022-08-04T20:04:51.335Z,3.40
2022-08-04T20:07:56.864Z,11.80
2022-08-04T20:11:02.051Z,3.53
2022-08-04T20:14:07.119Z,3.95
2022-08-04T20:17:17.780Z,5.18
2022-08-04T20:20:24.468Z,6.40
2022-08-04T20:23:47.962Z,4.50
2022-08-04T20:26:54.922Z,4.50
2022-08-04T20:29:59.934Z,4.97
2022-08-04T20:33:08.537Z,3.70
2022-08-04T20:36:19.095Z,5.93
2022-08-04T20:39:25.014Z,5.68
2022-08-04T20:42:34.165Z,4.75
2022-08-04T20:45:57.010Z,5.40
2022-08-04T20:49:09.829Z,5.90
2022-08-04T20:52:20.248Z,6.10
2022-08-04T20:55:25.694Z,5.43
2022-08-04T20:58:34.867Z,2.13
2022-08-04T21:01:40.192Z,4.07
2022-08-04T21:04:53.780Z,2.90
2022-08-04T21:08:01.726Z,3.58
2022-08-04T21:11:09.118Z,9.52
2022-08-04T21:14:16.702Z,7.10
2022-08-04T21:17:56.712Z,6.65
2022-08-04T21:20:49.922Z,3.83
2022-08-04T21:23:58.856Z,3.67
2022-08-04T21:27:09.607Z,3.15
2022-08-04T21:30:24.051Z,3.03
2022-08-04T21:33:49.776Z,4.72
2022-08-04T21:36:59.044Z,4.15
2022-08-04T21:43:42.346Z,2.83
2022-08-04T21:46:48.310Z,3.08
2022-08-04T21:49:57.467Z,5.28
2022-08-04T21:53:10.002Z,9.25
2022-08-04T21:56:15.351Z,5.90
2022-08-04T21:59:31.803Z,4.85
2022-08-04T22:02:37.422Z,5.15
2022-08-04T22:05:46.955Z,3.72
2022-08-04T22:08:58.598Z,6.75
2022-08-04T22:12:03.702Z,5.80
2022-08-04T22:15:24.144Z,10.10
2022-08-04T22:18:38.455Z,9.13
2022-08-04T22:21:46.705Z,13.73
2022-08-04T22:24:54.569Z,10.90
2022-08-04T22:28:07.965Z,7.35
2022-08-04T22:31:24.041Z,5.63
2022-08-04T22:34:30.581Z,9.57
2022-08-04T22:37:44.563Z,5.50
2022-08-04T22:41:01.759Z,6.22
2022-08-04T22:44:10.033Z,7.88
2022-08-04T22:47:20.152Z,6.20
2022-08-04T22:50:28.584Z,10.30
2022-08-04T22:53:34.156Z,7.80
2022-08-04T22:56:45.662Z,11.95
2022-08-04T22:59:50.865Z,11.18
2022-08-04T23:02:55.999Z,11.30
2022-08-04T23:06:06.431Z,10.18
2022-08-04T23:09:15.953Z,5.68
2022-08-04T23:12:26.970Z,9.40
2022-08-04T23:15:33.439Z,10.65
2022-08-04T23:18:41.842Z,11.45
2022-08-04T23:22:01.844Z,9.55
2022-08-04T23:25:15.201Z,5.28
2022-08-04T23:28:25.466Z,9.48
2022-08-04T23:31:41.094Z,7.35
2022-08-04T23:34:46.790Z,9.60
2022-08-04T23:37:57.116Z,10.02
2022-08-04T23:41:08.892Z,6.93
2022-08-04T23:44:24.702Z,11.00
2022-08-04T23:48:14.789Z,7.82
2022-08-04T23:50:56.339Z,4.78
2022-08-04T23:54:04.425Z,9.15
2022-08-04T23:57:17.353Z,6.50
